sensor_id;sensor_type;location;lat;lon;timestamp;temperature;humidity
30288;DHT22;17103;48.316;11.558;2023-03-14T00:58:15;16.20;44.50
30288;DHT22;17103;48.316;11.558;2023-03-14T01:00:43;16.10;44.70
30288;DHT22;17103;48.316;11.558;2023-03-14T01:03:12;16.00;44.90
30288;DHT22;17103;48.316;11.558;2023-03-14T01:05:39;15.90;44.70
30288;DHT22;17103;48.316;11.558;2023-03-14T01:08:08;15.80;44.40
30288;DHT22;17103;48.316;11.558;2023-03-14T01:10:37;15.60;44.60
30288;DHT22;17103;48.316;11.558;2023-03-14T01:13:03;15.50;45.00
30288;DHT22;17103;48.316;11.558;2023-03-14T01:15:29;16.10;45.70
30288;DHT22;17103;48.316;11.558;2023-03-14T01:17:54;15.80;45.00
30288;DHT22;17103;48.316;11.558;2023-03-14T01:20:20;16.50;45.80
30288;DHT22;17103;48.316;11.558;2023-03-14T01:22:46;15.90;45.70
30288;DHT22;17103;48.316;11.558;2023-03-14T01:25:14;15.80;46.60
30288;DHT22;17103;48.316;11.558;2023-03-14T01:27:40;16.80;46.90
30288;DHT22;17103;48.316;11.558;2023-03-14T01:30:20;15.70;47.00
30288;DHT22;17103;48.316;11.558;2023-03-14T01:32:46;15.60;47.40
30288;DHT22;17103;48.316;11.558;2023-03-14T01:35:16;15.80;47.90
30288;DHT22;17103;48.316;11.558;2023-03-14T01:37:41;15.30;47.80
30288;DHT22;17103;48.316;11.558;2023-03-14T01:40:10;15.10;47.80
30288;DHT22;17103;48.316;11.558;2023-03-14T01:42:53;15.00;48.90
30288;DHT22;17103;48.316;11.558;2023-03-14T01:48:31;14.70;49.00
30288;DHT22;17103;48.316;11.558;2023-03-14T01:50:58;15.30;49.30
30288;DHT22;17103;48.316;11.558;2023-03-14T01:53:25;14.80;49.10
30288;DHT22;17103;48.316;11.558;2023-03-14T01:55:52;14.50;49.10
30288;DHT22;17103;48.316;11.558;2023-03-14T01:58:23;14.40;48.90
30288;DHT22;17103;48.316;11.558;2023-03-14T02:00:49;14.50;49.90
30288;DHT22;17103;48.316;11.558;2023-03-14T02:03:17;15.10;50.70
30288;DHT22;17103;48.316;11.558;2023-03-14T02:05:44;14.20;50.00
30288;DHT22;17103;48.316;11.558;2023-03-14T02:08:18;14.20;50.40
30288;DHT22;17103;48.316;11.558;2023-03-14T02:10:48;14.60;50.60
30288;DHT22;17103;48.316;11.558;2023-03-14T02:13:16;14.00;50.60
30288;DHT22;17103;48.316;11.558;2023-03-14T02:15:42;14.00;50.20
30288;DHT22;17103;48.316;11.558;2023-03-14T02:18:09;14.00;50.50
30288;DHT22;17103;48.316;11.558;2023-03-14T02:20:50;14.00;49.70
30288;DHT22;17103;48.316;11.558;2023-03-14T02:26:01;15.20;51.20
30288;DHT22;17103;48.316;11.558;2023-03-14T02:28:29;14.30;50.30
30288;DHT22;17103;48.316;11.558;2023-03-14T02:30:55;14.30;50.00
30288;DHT22;17103;48.316;11.558;2023-03-14T02:33:22;14.00;50.20
30288;DHT22;17103;48.316;11.558;2023-03-14T02:35:53;14.50;50.20
30288;DHT22;17103;48.316;11.558;2023-03-14T02:38:24;14.30;49.70
30288;DHT22;17103;48.316;11.558;2023-03-14T02:40:52;14.60;50.00
30288;DHT22;17103;48.316;11.558;2023-03-14T02:43:18;14.60;49.70
30288;DHT22;17103;48.316;11.558;2023-03-14T02:45:46;14.70;50.00
30288;DHT22;17103;48.316;11.558;2023-03-14T02:48:25;14.30;49.30
30288;DHT22;17103;48.316;11.558;2023-03-14T02:50:54;14.70;49.60
30288;DHT22;17103;48.316;11.558;2023-03-14T02:53:29;14.40;49.10
30288;DHT22;17103;48.316;11.558;2023-03-14T02:55:56;14.90;49.50
30288;DHT22;17103;48.316;11.558;2023-03-14T02:58:24;14.50;48.80
30288;DHT22;17103;48.316;11.558;2023-03-14T03:00:53;14.70;48.90
30288;DHT22;17103;48.316;11.558;2023-03-14T03:03:19;14.60;48.40
30288;DHT22;17103;48.316;11.558;2023-03-14T03:05:53;14.60;48.40
30288;DHT22;17103;48.316;11.558;2023-03-14T03:08:20;14.10;48.40
30288;DHT22;17103;48.316;11.558;2023-03-14T03:10:47;14.60;47.90
30288;DHT22;17103;48.316;11.558;2023-03-14T03:13:15;14.80;48.50
30288;DHT22;17103;48.316;11.558;2023-03-14T03:15:41;14.60;48.10
30288;DHT22;17103;48.316;11.558;2023-03-14T03:18:08;14.50;47.60
30288;DHT22;17103;48.316;11.558;2023-03-14T03:20:35;15.00;48.70
30288;DHT22;17103;48.316;11.558;2023-03-14T03:23:01;15.60;48.80
30288;DHT22;17103;48.316;11.558;2023-03-14T03:25:29;14.50;48.20
30288;DHT22;17103;48.316;11.558;2023-03-14T03:27:55;14.40;47.80
30288;DHT22;17103;48.316;11.558;2023-03-14T03:30:21;14.40;48.30
30288;DHT22;17103;48.316;11.558;2023-03-14T03:32:47;14.30;48.00
30288;DHT22;17103;48.316;11.558;2023-03-14T03:35:13;14.60;48.90
30288;DHT22;17103;48.316;11.558;2023-03-14T03:37:39;14.60;48.70
30288;DHT22;17103;48.316;11.558;2023-03-14T03:40:06;14.70;49.40
30288;DHT22;17103;48.316;11.558;2023-03-14T03:42:33;14.10;48.50
30288;DHT22;17103;48.316;11.558;2023-03-14T03:45:00;14.80;49.20
30288;DHT22;17103;48.316;11.558;2023-03-14T03:47:26;14.00;48.40
30288;DHT22;17103;48.316;11.558;2023-03-14T03:49:52;14.00;48.80
30288;DHT22;17103;48.316;11.558;2023-03-14T03:52:18;13.90;48.30
30288;DHT22;17103;48.316;11.558;2023-03-14T03:54:45;14.40;48.60
30288;DHT22;17103;48.316;11.558;2023-03-14T03:57:11;13.90;47.90
30288;DHT22;17103;48.316;11.558;2023-03-14T03:59:37;13.90;47.80
30288;DHT22;17103;48.316;11.558;2023-03-14T04:02:05;13.90;47.90
30288;DHT22;17103;48.316;11.558;2023-03-14T04:04:31;14.10;48.00
30288;DHT22;17103;48.316;11.558;2023-03-14T04:06:57;14.10;48.00
30288;DHT22;17103;48.316;11.558;2023-03-14T04:09:22;14.00;48.00
30288;DHT22;17103;48.316;11.558;2023-03-14T04:11:48;13.10;47.10
30288;DHT22;17103;48.316;11.558;2023-03-14T04:14:14;13.70;47.50
30288;DHT22;17103;48.316;11.558;2023-03-14T04:16:40;15.10;48.90
30288;DHT22;17103;48.316;11.558;2023-03-14T04:19:06;13.90;47.60
30288;DHT22;17103;48.316;11.558;2023-03-14T04:21:33;14.00;47.80
30288;DHT22;17103;48.316;11.558;2023-03-14T04:24:08;13.60;47.60
30288;DHT22;17103;48.316;11.558;2023-03-14T04:26:34;13.40;47.60
30288;DHT22;17103;48.316;11.558;2023-03-14T04:28:59;14.30;48.10
30288;DHT22;17103;48.316;11.558;2023-03-14T04:31:26;13.30;47.80
30288;DHT22;17103;48.316;11.558;2023-03-14T04:33:52;13.30;47.90
30288;DHT22;17103;48.316;11.558;2023-03-14T04:36:19;13.20;47.80
30288;DHT22;17103;48.316;11.558;2023-03-14T04:38:45;13.00;47.90
30288;DHT22;17103;48.316;11.558;2023-03-14T04:41:11;13.50;48.30
30288;DHT22;17103;48.316;11.558;2023-03-14T04:43:37;13.40;48.10
30288;DHT22;17103;48.316;11.558;2023-03-14T04:46:03;13.10;47.90
30288;DHT22;17103;48.316;11.558;2023-03-14T04:48:29;13.00;48.00
30288;DHT22;17103;48.316;11.558;2023-03-14T04:50:55;13.00;47.80
30288;DHT22;17103;48.316;11.558;2023-03-14T04:53:21;13.40;48.30
30288;DHT22;17103;48.316;11.558;2023-03-14T04:55:49;14.00;48.60
30288;DHT22;17103;48.316;11.558;2023-03-14T04:58:14;13.00;48.20
30288;DHT22;17103;48.316;11.558;2023-03-14T05:00:40;13.20;48.00
30288;DHT22;17103;48.316;11.558;2023-03-14T05:03:06;13.00;48.00
30288;DHT22;17103;48.316;11.558;2023-03-14T05:05:32;14.10;49.00
30288;DHT22;17103;48.316;11.558;2023-03-14T05:07:58;13.30;48.30
30288;DHT22;17103;48.316;11.558;2023-03-14T05:10:23;13.00;48.10
30288;DHT22;17103;48.316;11.558;2023-03-14T05:12:49;12.90;47.80
30288;DHT22;17103;48.316;11.558;2023-03-14T05:15:15;13.40;48.50
30288;DHT22;17103;48.316;11.558;2023-03-14T05:17:40;13.10;47.80
30288;DHT22;17103;48.316;11.558;2023-03-14T05:20:07;12.90;47.80
30288;DHT22;17103;48.316;11.558;2023-03-14T05:22:38;12.80;47.70
30288;DHT22;17103;48.316;11.558;2023-03-14T05:25:06;12.80;48.20
30288;DHT22;17103;48.316;11.558;2023-03-14T05:27:33;12.80;48.30
30288;DHT22;17103;48.316;11.558;2023-03-14T05:29:59;12.80;48.10
30288;DHT22;17103;48.316;11.558;2023-03-14T05:32:24;13.10;48.30
30288;DHT22;17103;48.316;11.558;2023-03-14T05:38:19;12.60;48.30
30288;DHT22;17103;48.316;11.558;2023-03-14T05:40:51;12.80;48.50
30288;DHT22;17103;48.316;11.558;2023-03-14T05:43:17;13.10;48.60
30288;DHT22;17103;48.316;11.558;2023-03-14T05:49:21;12.40;48.20
30288;DHT22;17103;48.316;11.558;2023-03-14T05:51:46;12.40;48.20
30288;DHT22;17103;48.316;11.558;2023-03-14T05:54:12;12.40;48.00
30288;DHT22;17103;48.316;11.558;2023-03-14T05:57:06;13.60;49.10
30288;DHT22;17103;48.316;11.558;2023-03-14T05:59:40;12.50;48.40
30288;DHT22;17103;48.316;11.558;2023-03-14T06:05:29;12.40;48.10
30288;DHT22;17103;48.316;11.558;2023-03-14T06:07:54;13.10;48.20
30288;DHT22;17103;48.316;11.558;2023-03-14T06:10:20;12.50;47.80
30288;DHT22;17103;48.316;11.558;2023-03-14T06:12:46;12.90;48.40
30288;DHT22;17103;48.316;11.558;2023-03-14T06:15:11;12.90;48.10
30288;DHT22;17103;48.316;11.558;2023-03-14T06:17:38;12.70;48.00
30288;DHT22;17103;48.316;11.558;2023-03-14T06:30:44;12.50;47.90
30288;DHT22;17103;48.316;11.558;2023-03-14T07:06:33;12.60;48.20
30288;DHT22;17103;48.316;11.558;2023-03-14T07:08:59;13.30;48.50
30288;DHT22;17103;48.316;11.558;2023-03-14T07:11:26;12.60;48.20
30288;DHT22;17103;48.316;11.558;2023-03-14T07:13:52;12.50;48.40
30288;DHT22;17103;48.316;11.558;2023-03-14T07:16:17;12.50;48.60
30288;DHT22;17103;48.316;11.558;2023-03-14T07:18:43;12.50;49.00
30288;DHT22;17103;48.316;11.558;2023-03-14T07:21:09;12.50;48.20
30288;DHT22;17103;48.316;11.558;2023-03-14T07:23:35;12.50;48.30
30288;DHT22;17103;48.316;11.558;2023-03-14T07:26:02;12.90;48.60
30288;DHT22;17103;48.316;11.558;2023-03-14T07:28:29;12.60;48.50
30288;DHT22;17103;48.316;11.558;2023-03-14T07:30:57;12.60;48.10
30288;DHT22;17103;48.316;11.558;2023-03-14T07:33:23;12.70;48.10
30288;DHT22;17103;48.316;11.558;2023-03-14T07:35:49;12.70;48.20
30288;DHT22;17103;48.316;11.558;2023-03-14T07:38:15;12.70;48.20
30288;DHT22;17103;48.316;11.558;2023-03-14T07:40:41;12.70;48.00
30288;DHT22;17103;48.316;11.558;2023-03-14T07:43:08;12.70;48.10
30288;DHT22;17103;48.316;11.558;2023-03-14T07:45:33;12.70;48.10
30288;DHT22;17103;48.316;11.558;2023-03-14T07:47:59;12.70;47.90
30288;DHT22;17103;48.316;11.558;2023-03-14T07:50:26;12.60;47.80
30288;DHT22;17103;48.316;11.558;2023-03-14T07:52:52;13.30;48.30
30288;DHT22;17103;48.316;11.558;2023-03-14T07:55:18;12.80;47.70
30288;DHT22;17103;48.316;11.558;2023-03-14T07:57:43;12.80;47.60
30288;DHT22;17103;48.316;11.558;2023-03-14T08:00:09;12.80;47.60
30288;DHT22;17103;48.316;11.558;2023-03-14T08:02:36;12.80;47.60
30288;DHT22;17103;48.316;11.558;2023-03-14T08:05:03;12.80;47.70
30288;DHT22;17103;48.316;11.558;2023-03-14T08:07:29;12.80;47.60
30288;DHT22;17103;48.316;11.558;2023-03-14T08:09:55;12.80;47.60
30288;DHT22;17103;48.316;11.558;2023-03-14T08:12:20;12.80;47.80
30288;DHT22;17103;48.316;11.558;2023-03-14T08:18:14;12.90;47.70
30288;DHT22;17103;48.316;11.558;2023-03-14T08:38:13;13.10;47.30
30288;DHT22;17103;48.316;11.558;2023-03-14T08:43:42;13.20;47.20
30288;DHT22;17103;48.316;11.558;2023-03-14T08:46:14;13.20;47.10
30288;DHT22;17103;48.316;11.558;2023-03-14T08:48:45;13.20;47.00
30288;DHT22;17103;48.316;11.558;2023-03-14T08:51:43;13.50;47.20
30288;DHT22;17103;48.316;11.558;2023-03-14T08:54:26;13.30;47.10
30288;DHT22;17103;48.316;11.558;2023-03-14T08:57:02;13.10;46.70
30288;DHT22;17103;48.316;11.558;2023-03-14T08:59:31;13.30;46.80
30288;DHT22;17103;48.316;11.558;2023-03-14T09:02:00;13.40;47.00
30288;DHT22;17103;48.316;11.558;2023-03-14T09:04:39;13.40;46.60
30288;DHT22;17103;48.316;11.558;2023-03-14T09:07:07;13.60;46.40
30288;DHT22;17103;48.316;11.558;2023-03-14T09:09:35;13.40;45.90
30288;DHT22;17103;48.316;11.558;2023-03-14T09:12:13;13.20;45.90
30288;DHT22;17103;48.316;11.558;2023-03-14T09:14:48;13.40;46.10
30288;DHT22;17103;48.316;11.558;2023-03-14T09:17:37;13.40;46.00
30288;DHT22;17103;48.316;11.558;2023-03-14T09:20:22;13.30;45.60
30288;DHT22;17103;48.316;11.558;2023-03-14T09:22:57;13.40;45.70
30288;DHT22;17103;48.316;11.558;2023-03-14T09:25:28;13.50;45.50
30288;DHT22;17103;48.316;11.558;2023-03-14T09:27:54;13.70;45.90
30288;DHT22;17103;48.316;11.558;2023-03-14T09:30:30;13.50;45.50
30288;DHT22;17103;48.316;11.558;2023-03-14T09:32:58;13.60;45.80
30288;DHT22;17103;48.316;11.558;2023-03-14T09:35:24;13.80;45.70
30288;DHT22;17103;48.316;11.558;2023-03-14T09:37:51;13.70;45.90
30288;DHT22;17103;48.316;11.558;2023-03-14T09:40:19;14.50;46.40
30288;DHT22;17103;48.316;11.558;2023-03-14T09:42:50;13.70;45.60
30288;DHT22;17103;48.316;11.558;2023-03-14T09:45:31;14.00;45.70
30288;DHT22;17103;48.316;11.558;2023-03-14T09:48:03;14.00;45.20
30288;DHT22;17103;48.316;11.558;2023-03-14T09:51:05;13.80;44.60
30288;DHT22;17103;48.316;11.558;2023-03-14T09:53:52;13.80;44.50
30288;DHT22;17103;48.316;11.558;2023-03-14T09:56:27;13.80;44.60
30288;DHT22;17103;48.316;11.558;2023-03-14T09:59:08;13.80;44.10
30288;DHT22;17103;48.316;11.558;2023-03-14T10:02:19;13.80;44.20
30288;DHT22;17103;48.316;11.558;2023-03-14T10:04:59;13.90;43.80
30288;DHT22;17103;48.316;11.558;2023-03-14T10:11:24;14.10;43.90
30288;DHT22;17103;48.316;11.558;2023-03-14T10:17:21;14.00;43.60
30288;DHT22;17103;48.316;11.558;2023-03-14T10:29:22;14.20;43.00
30288;DHT22;17103;48.316;11.558;2023-03-14T10:41:37;14.20;42.70
30288;DHT22;17103;48.316;11.558;2023-03-14T11:15:13;14.70;41.60
30288;DHT22;17103;48.316;11.558;2023-03-14T11:18:16;14.70;41.70
30288;DHT22;17103;48.316;11.558;2023-03-14T11:21:02;14.70;40.90
30288;DHT22;17103;48.316;11.558;2023-03-14T11:23:53;14.80;40.70
30288;DHT22;17103;48.316;11.558;2023-03-14T11:29:20;14.90;40.30
30288;DHT22;17103;48.316;11.558;2023-03-14T11:31:46;14.90;40.80
30288;DHT22;17103;48.316;11.558;2023-03-14T11:34:27;15.00;41.10
30288;DHT22;17103;48.316;11.558;2023-03-14T11:39:41;15.10;41.50
30288;DHT22;17103;48.316;11.558;2023-03-14T11:42:12;15.30;40.90
30288;DHT22;17103;48.316;11.558;2023-03-14T11:44:40;15.10;40.70
30288;DHT22;17103;48.316;11.558;2023-03-14T11:47:34;15.10;40.40
30288;DHT22;17103;48.316;11.558;2023-03-14T11:50:12;15.10;40.30
30288;DHT22;17103;48.316;11.558;2023-03-14T12:06:53;15.20;40.20
30288;DHT22;17103;48.316;11.558;2023-03-14T12:09:23;15.20;40.00
30288;DHT22;17103;48.316;11.558;2023-03-14T12:15:35;15.20;39.60
30288;DHT22;17103;48.316;11.558;2023-03-14T12:18:31;15.30;40.10
30288;DHT22;17103;48.316;11.558;2023-03-14T12:21:02;15.30;39.80
30288;DHT22;17103;48.316;11.558;2023-03-14T12:23:37;15.30;39.50
30288;DHT22;17103;48.316;11.558;2023-03-14T12:26:12;15.30;39.60
30288;DHT22;17103;48.316;11.558;2023-03-14T12:28:43;15.30;39.40
30288;DHT22;17103;48.316;11.558;2023-03-14T12:41:53;15.30;39.90
30288;DHT22;17103;48.316;11.558;2023-03-14T12:47:40;15.10;39.90
30288;DHT22;17103;48.316;11.558;2023-03-14T12:50:07;15.20;39.80
30288;DHT22;17103;48.316;11.558;2023-03-14T13:17:46;15.00;40.20
30288;DHT22;17103;48.316;11.558;2023-03-14T13:24:27;14.80;40.70
30288;DHT22;17103;48.316;11.558;2023-03-14T13:26:55;15.00;40.80
30288;DHT22;17103;48.316;11.558;2023-03-14T13:29:28;14.90;41.40
30288;DHT22;17103;48.316;11.558;2023-03-14T13:32:22;14.90;41.80
30288;DHT22;17103;48.316;11.558;2023-03-14T13:45:15;14.50;43.60
30288;DHT22;17103;48.316;11.558;2023-03-14T13:47:44;14.40;44.60
30288;DHT22;17103;48.316;11.558;2023-03-14T13:50:26;14.00;44.60
30288;DHT22;17103;48.316;11.558;2023-03-14T13:53:09;14.50;44.70
30288;DHT22;17103;48.316;11.558;2023-03-14T13:55:41;14.20;44.90
30288;DHT22;17103;48.316;11.558;2023-03-14T14:00:55;13.80;44.40
30288;DHT22;17103;48.316;11.558;2023-03-14T14:03:44;14.10;45.10
30288;DHT22;17103;48.316;11.558;2023-03-14T14:40:31;12.00;48.20
30288;DHT22;17103;48.316;11.558;2023-03-14T14:47:24;12.10;48.80
30288;DHT22;17103;48.316;11.558;2023-03-14T14:49:54;11.90;48.10
30288;DHT22;17103;48.316;11.558;2023-03-14T14:52:40;11.80;48.00
30288;DHT22;17103;48.316;11.558;2023-03-14T14:55:34;11.70;48.30
30288;DHT22;17103;48.316;11.558;2023-03-14T14:58:33;11.60;48.70
30288;DHT22;17103;48.316;11.558;2023-03-14T15:03:32;11.50;49.80
30288;DHT22;17103;48.316;11.558;2023-03-14T15:05:59;11.80;50.40
30288;DHT22;17103;48.316;11.558;2023-03-14T15:08:25;11.50;50.20
30288;DHT22;17103;48.316;11.558;2023-03-14T15:10:52;11.70;50.10
30288;DHT22;17103;48.316;11.558;2023-03-14T15:13:19;11.20;50.30
30288;DHT22;17103;48.316;11.558;2023-03-14T15:15:44;11.50;51.30
30288;DHT22;17103;48.316;11.558;2023-03-14T15:18:17;11.40;51.80
30288;DHT22;17103;48.316;11.558;2023-03-14T15:20:44;11.30;52.30
30288;DHT22;17103;48.316;11.558;2023-03-14T15:23:11;11.40;52.80
30288;DHT22;17103;48.316;11.558;2023-03-14T15:25:37;11.60;52.80
30288;DHT22;17103;48.316;11.558;2023-03-14T15:28:18;11.00;52.20
30288;DHT22;17103;48.316;11.558;2023-03-14T15:30:46;11.00;52.00
30288;DHT22;17103;48.316;11.558;2023-03-14T15:33:12;10.90;51.90
30288;DHT22;17103;48.316;11.558;2023-03-14T15:35:38;10.90;51.70
30288;DHT22;17103;48.316;11.558;2023-03-14T15:38:04;10.80;50.50
30288;DHT22;17103;48.316;11.558;2023-03-14T15:40:30;10.70;49.60
30288;DHT22;17103;48.316;11.558;2023-03-14T15:42:56;10.70;49.10
30288;DHT22;17103;48.316;11.558;2023-03-14T15:45:22;10.80;48.80
30288;DHT22;17103;48.316;11.558;2023-03-14T15:47:47;11.00;48.80
30288;DHT22;17103;48.316;11.558;2023-03-14T15:50:14;10.70;48.00
30288;DHT22;17103;48.316;11.558;2023-03-14T15:52:40;10.70;48.10
30288;DHT22;17103;48.316;11.558;2023-03-14T15:55:06;10.70;48.20
30288;DHT22;17103;48.316;11.558;2023-03-14T15:57:32;10.80;48.20
30288;DHT22;17103;48.316;11.558;2023-03-14T15:59:59;10.70;48.10
30288;DHT22;17103;48.316;11.558;2023-03-14T16:02:24;10.70;48.40
30288;DHT22;17103;48.316;11.558;2023-03-14T16:04:50;10.80;48.60
30288;DHT22;17103;48.316;11.558;2023-03-14T16:07:15;10.80;48.30
30288;DHT22;17103;48.316;11.558;2023-03-14T16:09:41;10.90;47.90
30288;DHT22;17103;48.316;11.558;2023-03-14T16:12:08;11.10;47.90
30288;DHT22;17103;48.316;11.558;2023-03-14T16:14:38;11.10;46.60
30288;DHT22;17103;48.316;11.558;2023-03-14T16:17:08;11.10;46.30
30288;DHT22;17103;48.316;11.558;2023-03-14T16:19:37;11.20;46.30
30288;DHT22;17103;48.316;11.558;2023-03-14T16:22:03;11.20;46.30
30288;DHT22;17103;48.316;11.558;2023-03-14T16:24:29;11.10;42.10
30288;DHT22;17103;48.316;11.558;2023-03-14T16:26:54;11.10;41.70
30288;DHT22;17103;48.316;11.558;2023-03-14T16:29:20;11.20;40.70
30288;DHT22;17103;48.316;11.558;2023-03-14T16:31:46;10.80;40.30
30288;DHT22;17103;48.316;11.558;2023-03-14T16:34:14;10.80;41.20
30288;DHT22;17103;48.316;11.558;2023-03-14T16:36:39;10.70;41.50
30288;DHT22;17103;48.316;11.558;2023-03-14T16:39:06;10.80;41.40
30288;DHT22;17103;48.316;11.558;2023-03-14T16:41:32;10.60;40.10
30288;DHT22;17103;48.316;11.558;2023-03-14T16:43:58;10.90;40.20
30288;DHT22;17103;48.316;11.558;2023-03-14T16:46:24;10.50;40.50
30288;DHT22;17103;48.316;11.558;2023-03-14T16:48:51;10.40;39.90
30288;DHT22;17103;48.316;11.558;2023-03-14T16:51:18;10.30;40.30
30288;DHT22;17103;48.316;11.558;2023-03-14T16:53:44;10.30;39.10
30288;DHT22;17103;48.316;11.558;2023-03-14T16:56:10;10.20;39.40
30288;DHT22;17103;48.316;11.558;2023-03-14T16:58:37;10.20;40.00
30288;DHT22;17103;48.316;11.558;2023-03-14T17:01:11;10.20;39.50
30288;DHT22;17103;48.316;11.558;2023-03-14T17:03:42;10.20;39.40
30288;DHT22;17103;48.316;11.558;2023-03-14T17:06:11;10.20;38.70
30288;DHT22;17103;48.316;11.558;2023-03-14T17:08:36;10.10;38.60
30288;DHT22;17103;48.316;11.558;2023-03-14T17:11:02;10.10;38.30
30288;DHT22;17103;48.316;11.558;2023-03-14T17:13:29;10.00;38.00
30288;DHT22;17103;48.316;11.558;2023-03-14T17:15:59;10.00;37.20
30288;DHT22;17103;48.316;11.558;2023-03-14T17:18:26;9.90;37.90
30288;DHT22;17103;48.316;11.558;2023-03-14T17:20:55;9.90;37.70
30288;DHT22;17103;48.316;11.558;2023-03-14T17:23:22;9.80;37.80
30288;DHT22;17103;48.316;11.558;2023-03-14T17:25:50;9.80;37.50
30288;DHT22;17103;48.316;11.558;2023-03-14T17:28:17;9.80;37.00
30288;DHT22;17103;48.316;11.558;2023-03-14T17:30:43;9.70;37.40
30288;DHT22;17103;48.316;11.558;2023-03-14T17:33:09;9.70;37.30
30288;DHT22;17103;48.316;11.558;2023-03-14T17:35:35;9.70;37.00
30288;DHT22;17103;48.316;11.558;2023-03-14T17:38:02;9.70;37.40
30288;DHT22;17103;48.316;11.558;2023-03-14T17:40:28;9.70;37.90
30288;DHT22;17103;48.316;11.558;2023-03-14T17:42:54;9.70;37.70
30288;DHT22;17103;48.316;11.558;2023-03-14T17:45:20;9.90;37.50
30288;DHT22;17103;48.316;11.558;2023-03-14T17:47:46;9.70;37.40
30288;DHT22;17103;48.316;11.558;2023-03-14T17:50:12;10.00;36.90
30288;DHT22;17103;48.316;11.558;2023-03-14T17:52:38;10.20;37.20
30288;DHT22;17103;48.316;11.558;2023-03-14T17:55:05;10.20;37.20
30288;DHT22;17103;48.316;11.558;2023-03-14T17:57:33;9.80;37.50
30288;DHT22;17103;48.316;11.558;2023-03-14T18:00:00;9.80;37.40
30288;DHT22;17103;48.316;11.558;2023-03-14T18:02:26;9.80;37.40
30288;DHT22;17103;48.316;11.558;2023-03-14T18:04:52;9.80;37.10
30288;DHT22;17103;48.316;11.558;2023-03-14T18:07:18;9.80;37.00
30288;DHT22;17103;48.316;11.558;2023-03-14T18:09:45;9.80;37.00
30288;DHT22;17103;48.316;11.558;2023-03-14T18:12:10;9.80;36.80
30288;DHT22;17103;48.316;11.558;2023-03-14T18:14:37;9.90;37.00
30288;DHT22;17103;48.316;11.558;2023-03-14T18:17:03;10.10;36.00
30288;DHT22;17103;48.316;11.558;2023-03-14T18:19:30;9.90;36.80
30288;DHT22;17103;48.316;11.558;2023-03-14T18:21:55;9.90;36.80
30288;DHT22;17103;48.316;11.558;2023-03-14T18:24:21;9.90;37.20
30288;DHT22;17103;48.316;11.558;2023-03-14T18:26:47;9.90;36.80
30288;DHT22;17103;48.316;11.558;2023-03-14T18:29:13;9.90;36.60
30288;DHT22;17103;48.316;11.558;2023-03-14T18:31:43;9.80;36.70
30288;DHT22;17103;48.316;11.558;2023-03-14T18:34:09;9.90;37.20
30288;DHT22;17103;48.316;11.558;2023-03-14T18:36:36;9.90;37.20
30288;DHT22;17103;48.316;11.558;2023-03-14T18:39:02;9.80;37.00
30288;DHT22;17103;48.316;11.558;2023-03-14T18:41:30;9.80;37.10
30288;DHT22;17103;48.316;11.558;2023-03-14T18:43:56;9.70;37.10
30288;DHT22;17103;48.316;11.558;2023-03-14T18:46:28;9.70;37.40
30288;DHT22;17103;48.316;11.558;2023-03-14T18:48:54;9.70;37.40
30288;DHT22;17103;48.316;11.558;2023-03-14T18:51:30;9.60;37.50
30288;DHT22;17103;48.316;11.558;2023-03-14T18:53:56;9.60;37.50
30288;DHT22;17103;48.316;11.558;2023-03-14T18:56:24;9.60;37.50
30288;DHT22;17103;48.316;11.558;2023-03-14T18:58:50;9.60;37.80
30288;DHT22;17103;48.316;11.558;2023-03-14T19:01:15;9.60;37.90
30288;DHT22;17103;48.316;11.558;2023-03-14T19:03:45;9.50;37.90
30288;DHT22;17103;48.316;11.558;2023-03-14T19:06:14;9.50;38.00
30288;DHT22;17103;48.316;11.558;2023-03-14T19:08:41;9.50;37.90
30288;DHT22;17103;48.316;11.558;2023-03-14T19:11:09;9.60;38.00
30288;DHT22;17103;48.316;11.558;2023-03-14T19:13:36;9.60;38.00
30288;DHT22;17103;48.316;11.558;2023-03-14T19:16:02;9.50;38.10
30288;DHT22;17103;48.316;11.558;2023-03-14T19:18:29;9.60;38.20
30288;DHT22;17103;48.316;11.558;2023-03-14T19:21:03;9.60;38.20
30288;DHT22;17103;48.316;11.558;2023-03-14T19:23:29;9.60;38.20
30288;DHT22;17103;48.316;11.558;2023-03-14T19:25:56;9.60;38.20
30288;DHT22;17103;48.316;11.558;2023-03-14T19:28:23;9.60;38.20
30288;DHT22;17103;48.316;11.558;2023-03-14T19:30:52;9.60;38.20
30288;DHT22;17103;48.316;11.558;2023-03-14T19:33:19;9.60;38.20
30288;DHT22;17103;48.316;11.558;2023-03-14T19:35:45;9.60;38.30
30288;DHT22;17103;48.316;11.558;2023-03-14T19:38:11;9.60;38.40
30288;DHT22;17103;48.316;11.558;2023-03-14T19:40:38;9.80;38.60
30288;DHT22;17103;48.316;11.558;2023-03-14T19:43:05;9.70;39.10
30288;DHT22;17103;48.316;11.558;2023-03-14T19:45:31;9.70;38.50
30288;DHT22;17103;48.316;11.558;2023-03-14T19:48:01;9.70;38.50
30288;DHT22;17103;48.316;11.558;2023-03-14T19:50:28;9.70;38.40
30288;DHT22;17103;48.316;11.558;2023-03-14T19:52:56;9.70;38.50
30288;DHT22;17103;48.316;11.558;2023-03-14T19:55:24;9.70;38.50
30288;DHT22;17103;48.316;11.558;2023-03-14T19:57:51;9.70;38.50
30288;DHT22;17103;48.316;11.558;2023-03-14T20:00:19;9.70;38.50
30288;DHT22;17103;48.316;11.558;2023-03-14T20:02:45;9.70;38.60
30288;DHT22;17103;48.316;11.558;2023-03-14T20:05:12;9.70;38.50
30288;DHT22;17103;48.316;11.558;2023-03-14T20:07:39;9.70;38.60
30288;DHT22;17103;48.316;11.558;2023-03-14T20:10:06;9.70;38.70
30288;DHT22;17103;48.316;11.558;2023-03-14T20:12:32;9.80;38.90
30288;DHT22;17103;48.316;11.558;2023-03-14T20:14:58;9.70;38.80
30288;DHT22;17103;48.316;11.558;2023-03-14T20:17:24;10.00;38.20
30288;DHT22;17103;48.316;11.558;2023-03-14T20:19:50;9.80;39.00
30288;DHT22;17103;48.316;11.558;2023-03-14T20:22:15;9.80;38.90
30288;DHT22;17103;48.316;11.558;2023-03-14T20:24:41;9.80;38.90
30288;DHT22;17103;48.316;11.558;2023-03-14T20:27:07;9.80;39.00
30288;DHT22;17103;48.316;11.558;2023-03-14T20:29:32;9.80;39.50
30288;DHT22;17103;48.316;11.558;2023-03-14T20:31:58;9.80;39.90
30288;DHT22;17103;48.316;11.558;2023-03-14T20:34:24;9.80;40.30
30288;DHT22;17103;48.316;11.558;2023-03-14T20:36:51;9.70;40.80
30288;DHT22;17103;48.316;11.558;2023-03-14T20:39:20;9.70;41.80
30288;DHT22;17103;48.316;11.558;2023-03-14T20:41:45;9.60;42.60
30288;DHT22;17103;48.316;11.558;2023-03-14T20:44:11;9.50;43.20
30288;DHT22;17103;48.316;11.558;2023-03-14T20:46:38;9.40;43.50
30288;DHT22;17103;48.316;11.558;2023-03-14T20:49:05;9.30;43.60
30288;DHT22;17103;48.316;11.558;2023-03-14T20:51:31;9.20;43.80